Time;durP1;ratioP1;P1;durP2;ratioP2;P2;SDS_P1;SDS_P2;PMS_P1;PMS_P2;Temp;Humidity;BMP_temperature;BMP_pressure;BME280_temperature;BME280_humidity;BME280_pressure;Samples;Min_cycle;Max_cycle;Signal;HPM_P1;HPM_P2
2023/06/07 00:00:15;;;;;;;6.37;2.90;;;;;;;18.69;89.00;100989.41;5166852;28;20038;-74
2023/06/07 00:02:46;;;;;;;6.28;2.70;;;;;;;18.54;89.53;100987.72;5166506;28;20376;-74
2023/06/07 00:05:16;;;;;;;5.43;2.90;;;;;;;18.61;89.40;100989.88;5164494;28;20038;-74
2023/06/07 00:07:47;;;;;;;5.75;2.90;;;;;;;18.53;89.69;100988.66;5165126;28;20275;-74
2023/06/07 00:10:17;;;;;;;6.53;2.70;;;;;;;18.59;89.15;100993.56;5164589;28;20026;-74
2023/06/07 00:12:48;;;;;;;8.25;3.55;;;;;;;18.55;89.67;101000.00;5165057;28;20023;-73
2023/06/07 00:15:18;;;;;;;6.22;2.85;;;;;;;18.58;89.03;100983.91;5163934;28;20378;-74
2023/06/07 00:17:48;;;;;;;4.93;3.10;;;;;;;18.63;88.89;100995.06;5165488;28;20037;-73
2023/06/07 00:20:18;;;;;;;8.43;2.78;;;;;;;18.62;88.76;100994.25;5167176;28;20536;-74
2023/06/07 00:22:55;;;;;;;5.57;2.97;;;;;;;18.60;90.11;100990.84;5170663;28;20100;-74
2023/06/07 00:25:25;;;;;;;4.82;2.78;;;;;;;18.48;90.83;100986.28;5162679;28;20034;-74
2023/06/07 00:27:56;;;;;;;7.47;2.97;;;;;;;18.54;90.64;100985.06;5169894;28;20095;-73
2023/06/07 00:30:26;;;;;;;6.22;3.20;;;;;;;18.58;90.67;100990.09;5167167;28;20045;-75
2023/06/07 00:32:56;;;;;;;5.78;2.60;;;;;;;18.72;90.85;100994.50;5167365;28;20384;-74
2023/06/07 00:35:26;;;;;;;5.07;2.90;;;;;;;18.59;92.66;100990.91;5161851;28;20484;-74
2023/06/07 00:37:57;;;;;;;5.53;3.30;;;;;;;18.61;92.94;100994.31;5147485;28;20070;-74
2023/06/07 00:40:27;;;;;;;6.35;3.10;;;;;;;18.29;95.86;100995.44;5160488;28;20113;-74
2023/06/07 00:42:57;;;;;;;7.95;3.33;;;;;;;18.38;95.68;100989.59;5162345;28;20030;-73
2023/06/07 00:45:27;;;;;;;5.78;2.90;;;;;;;18.38;96.34;100994.88;5163426;28;20030;-74
2023/06/07 00:47:58;;;;;;;5.47;3.20;;;;;;;18.23;99.05;100986.06;5163378;28;20022;-74
2023/06/07 00:50:28;;;;;;;5.00;3.03;;;;;;;18.34;97.46;100982.78;5164388;28;20401;-74
2023/06/07 00:53:00;;;;;;;4.95;3.33;;;;;;;18.38;97.23;100984.31;5166188;28;20439;-74
2023/06/07 00:55:31;;;;;;;5.22;2.97;;;;;;;18.39;97.90;100986.00;5163409;28;20022;-74
2023/06/07 00:58:02;;;;;;;6.95;2.92;;;;;;;18.19;98.96;100988.97;5161256;28;20150;-74
2023/06/07 01:00:33;;;;;;;5.45;3.35;;;;;;;18.14;100.00;100986.59;5168297;28;20077;-74
2023/06/07 01:03:03;;;;;;;8.15;3.30;;;;;;;18.12;99.34;100988.47;5167149;28;20025;-74
2023/06/07 01:05:33;;;;;;;6.15;3.35;;;;;;;18.15;100.00;100984.81;5165888;28;20022;-74
2023/06/07 01:08:04;;;;;;;4.82;3.17;;;;;;;18.14;100.00;100983.94;5163788;28;20487;-74
2023/06/07 01:10:36;;;;;;;5.90;3.50;;;;;;;18.23;99.56;100980.75;5162726;28;20267;-73
2023/06/07 01:13:07;;;;;;;5.05;3.13;;;;;;;18.24;98.53;100989.53;5162150;28;20037;-74
2023/06/07 01:15:38;;;;;;;6.82;2.97;;;;;;;18.19;100.00;100981.03;5162960;28;20061;-73
2023/06/07 01:18:09;;;;;;;8.13;3.80;;;;;;;18.13;100.00;100978.72;5162475;28;20467;-74
2023/06/07 01:20:46;;;;;;;5.95;3.40;;;;;;;18.14;100.00;100981.31;5165817;28;20401;-73
2023/06/07 01:23:28;;;;;;;5.40;3.40;;;;;;;18.20;100.00;100974.78;5164004;28;20033;-74
2023/06/07 01:26:00;;;;;;;5.40;3.50;;;;;;;18.18;100.00;100981.97;5165608;28;20022;-74
2023/06/07 01:28:33;;;;;;;8.10;3.28;;;;;;;17.91;100.00;100979.19;5161757;28;20030;-74
2023/06/07 01:31:04;;;;;;;4.75;3.20;;;;;;;17.84;100.00;100969.88;5163559;28;20036;-74
2023/06/07 01:33:35;;;;;;;5.68;3.60;;;;;;;17.91;100.00;100975.66;5164858;28;20285;-73
2023/06/07 01:36:07;;;;;;;6.07;3.53;;;;;;;17.89;100.00;100975.78;5172038;28;20029;-75
2023/06/07 01:38:39;;;;;;;6.63;3.67;;;;;;;17.99;100.00;100973.44;5170763;28;20026;-74
2023/06/07 01:41:11;;;;;;;6.03;3.97;;;;;;;17.96;100.00;100970.94;5170956;28;20467;-74
2023/06/07 01:43:42;;;;;;;8.25;3.90;;;;;;;17.92;100.00;100966.78;5174598;28;20050;-74
2023/06/07 01:46:12;;;;;;;5.88;4.00;;;;;;;17.93;100.00;100971.13;5169933;28;20026;-72
2023/06/07 01:48:42;;;;;;;5.20;3.45;;;;;;;17.93;100.00;100966.72;5171169;28;20053;-73
2023/06/07 01:51:13;;;;;;;5.78;3.45;;;;;;;17.93;100.00;100963.19;5170209;28;20022;-74
2023/06/07 01:53:45;;;;;;;6.00;3.30;;;;;;;18.01;100.00;100974.19;5170964;28;20022;-74
2023/06/07 01:56:32;;;;;;;6.35;3.28;;;;;;;18.03;100.00;100977.59;5168404;28;20290;-74
2023/06/07 01:59:28;;;;;;;6.78;3.40;;;;;;;18.02;100.00;100978.53;5165880;28;20036;-73
2023/06/07 02:02:17;;;;;;;5.45;3.50;;;;;;;17.90;100.00;100971.31;5165298;28;20033;-73
2023/06/07 02:04:53;;;;;;;6.35;3.50;;;;;;;17.91;100.00;100970.38;5173312;28;20044;-74
2023/06/07 02:07:28;;;;;;;7.05;3.15;;;;;;;17.87;100.00;100972.38;5169296;28;20061;-73
2023/06/07 02:10:00;;;;;;;6.95;3.38;;;;;;;17.85;100.00;100974.22;5172297;28;20499;-73
2023/06/07 02:12:33;;;;;;;4.75;3.20;;;;;;;17.97;100.00;100972.69;5172654;28;20030;-74
2023/06/07 02:15:04;;;;;;;6.55;3.65;;;;;;;18.00;100.00;100960.09;5171499;28;20095;-74
2023/06/07 02:17:34;;;;;;;5.30;3.40;;;;;;;17.93;100.00;100966.72;5172551;28;20034;-74
2023/06/07 02:20:06;;;;;;;7.20;3.83;;;;;;;17.81;100.00;100975.38;5171365;28;20087;-74
2023/06/07 02:22:36;;;;;;;5.03;3.50;;;;;;;17.85;100.00;100968.13;5174202;28;20350;-74
2023/06/07 02:25:08;;;;;;;5.65;3.67;;;;;;;17.80;100.00;100970.19;5152850;28;20096;-74
2023/06/07 02:27:38;;;;;;;8.45;3.50;;;;;;;17.93;100.00;100966.72;5171018;28;20072;-74
2023/06/07 02:30:09;;;;;;;5.78;3.53;;;;;;;18.05;100.00;100967.78;5171687;28;20033;-74
2023/06/07 02:32:40;;;;;;;7.20;3.67;;;;;;;18.08;100.00;100964.94;5174514;28;20022;-73
2023/06/07 02:35:10;;;;;;;10.02;4.22;;;;;;;17.80;100.00;100972.84;5173537;28;20022;-73
2023/06/07 02:37:41;;;;;;;8.27;4.30;;;;;;;17.65;100.00;100971.06;5176024;28;20030;-74
2023/06/07 02:40:12;;;;;;;6.93;3.88;;;;;;;17.65;100.00;100961.34;5171334;28;20109;-73
2023/06/07 02:42:48;;;;;;;5.45;3.67;;;;;;;17.58;100.00;100964.41;5171987;28;20076;-74
2023/06/07 02:45:19;;;;;;;6.28;3.97;;;;;;;17.62;100.00;100965.97;5170237;28;20518;-75
2023/06/07 02:47:50;;;;;;;4.82;3.15;;;;;;;17.66;100.00;100970.97;5166383;28;20029;-74
2023/06/07 02:50:24;;;;;;;6.50;4.13;;;;;;;17.65;100.00;100968.44;5166745;28;20129;-75
2023/06/07 02:52:55;;;;;;;7.25;4.05;;;;;;;17.52;100.00;100970.91;5164113;28;20033;-73
2023/06/07 02:55:25;;;;;;;7.20;3.92;;;;;;;17.47;100.00;100972.13;5169960;28;20512;-74
2023/06/07 02:57:55;;;;;;;8.68;4.22;;;;;;;17.73;100.00;100966.19;5168725;28;20060;-74
2023/06/07 03:00:26;;;;;;;6.28;3.92;;;;;;;17.60;100.00;100975.75;5168344;28;20037;-74
2023/06/07 03:02:56;;;;;;;7.80;4.45;;;;;;;17.59;100.00;100982.00;5171234;28;20025;-73
2023/06/07 03:05:26;;;;;;;6.80;4.63;;;;;;;17.41;100.00;100980.41;5165263;28;20758;-74
2023/06/07 03:07:59;;;;;;;8.15;4.22;;;;;;;17.40;100.00;100990.13;5168956;28;20288;-73
2023/06/07 03:10:30;;;;;;;6.68;4.57;;;;;;;17.43;100.00;100986.44;5166149;28;20444;-74
2023/06/07 03:13:00;;;;;;;8.18;4.10;;;;;;;17.44;100.00;100988.16;5172869;28;20029;-73
2023/06/07 03:15:32;;;;;;;7.10;4.00;;;;;;;17.61;100.00;100995.97;5167097;28;20184;-74
2023/06/07 03:18:05;;;;;;;8.73;4.85;;;;;;;17.63;100.00;100994.13;5166271;28;20394;-73
2023/06/07 03:20:36;;;;;;;5.65;3.90;;;;;;;17.60;100.00;100988.97;5169132;28;20030;-74
2023/06/07 03:23:06;;;;;;;6.57;4.30;;;;;;;17.48;100.00;100997.63;5167677;28;20037;-74
2023/06/07 03:25:37;;;;;;;10.50;4.25;;;;;;;17.46;100.00;100986.28;5167100;28;20274;-74
2023/06/07 03:28:08;;;;;;;6.75;4.75;;;;;;;17.58;100.00;100990.84;5166017;28;20051;-73
2023/06/07 03:30:38;;;;;;;6.40;4.53;;;;;;;17.58;100.00;100996.16;5174655;28;20025;-73
2023/06/07 03:33:08;;;;;;;8.55;4.63;;;;;;;17.60;100.00;100995.13;5169961;28;20472;-74
2023/06/07 03:35:39;;;;;;;10.63;5.00;;;;;;;17.64;100.00;100990.53;5169028;28;20034;-73
2023/06/07 03:38:10;;;;;;;6.70;4.70;;;;;;;17.57;100.00;100995.31;5164996;28;20018;-74
2023/06/07 03:40:40;;;;;;;8.18;4.90;;;;;;;17.60;100.00;100987.19;5169108;28;20040;-73
2023/06/07 03:43:11;;;;;;;10.18;5.13;;;;;;;17.56;100.00;100987.44;5167196;28;20257;-74
2023/06/07 03:45:41;;;;;;;7.78;5.20;;;;;;;17.43;100.00;100986.44;5168865;28;20096;-73
2023/06/07 03:48:11;;;;;;;8.10;5.22;;;;;;;17.49;100.00;100980.81;5164313;28;20479;-73
2023/06/07 03:50:41;;;;;;;8.93;5.20;;;;;;;17.41;100.00;100977.75;5168540;28;20041;-74
2023/06/07 03:53:12;;;;;;;8.95;5.22;;;;;;;17.52;100.00;100981.47;5168122;28;20425;-73
2023/06/07 03:55:42;;;;;;;8.65;5.28;;;;;;;17.54;100.00;100976.13;5171790;28;20282;-73
2023/06/07 03:58:13;;;;;;;8.55;5.25;;;;;;;17.44;100.00;100986.38;5168634;28;20041;-73
2023/06/07 04:00:43;;;;;;;8.35;5.40;;;;;;;17.44;100.00;100988.16;5211236;23;20567;-73
2023/06/07 04:03:14;;;;;;;8.30;5.00;;;;;;;17.46;100.00;100986.28;5187753;28;20540;-73
2023/06/07 04:05:45;;;;;;;9.20;4.85;;;;;;;17.50;100.00;100987.81;5185861;28;20303;-72
2023/06/07 04:08:16;;;;;;;9.48;4.90;;;;;;;17.61;100.00;100982.75;5185842;28;20566;-73
2023/06/07 04:10:46;;;;;;;8.57;4.78;;;;;;;17.64;100.00;100970.22;5176880;28;20030;-72
2023/06/07 04:13:16;;;;;;;10.10;5.50;;;;;;;17.64;100.00;100979.94;5168951;28;20116;-72
2023/06/07 04:15:47;;;;;;;7.50;5.05;;;;;;;17.55;100.00;100986.63;5173118;28;20665;-72
2023/06/07 04:18:17;;;;;;;7.32;4.90;;;;;;;17.64;100.00;100987.88;5171208;28;20034;-73
2023/06/07 04:20:47;;;;;;;8.32;4.53;;;;;;;17.68;100.00;100981.47;5169329;28;20036;-73
2023/06/07 04:23:17;;;;;;;9.00;5.88;;;;;;;17.64;100.00;100985.25;5171772;28;20161;-73
2023/06/07 04:25:48;;;;;;;7.32;5.07;;;;;;;17.59;100.00;100992.56;5170160;28;20039;-71
2023/06/07 04:28:23;;;;;;;7.63;5.05;;;;;;;17.65;100.00;100987.78;5170200;28;20455;-72
2023/06/07 04:30:53;;;;;;;9.70;5.57;;;;;;;17.67;100.00;100990.34;5163882;28;20026;-72
2023/06/07 04:33:24;;;;;;;7.05;5.10;;;;;;;17.75;100.00;100994.25;5169426;28;20659;-73
2023/06/07 04:35:57;;;;;;;9.77;5.20;;;;;;;17.75;100.00;100988.09;5173518;28;20026;-73
2023/06/07 04:38:29;;;;;;;7.47;5.00;;;;;;;17.75;100.00;101004.81;5168413;28;20113;-73
2023/06/07 04:41:06;;;;;;;8.57;5.43;;;;;;;17.59;100.00;101003.13;5166671;28;20084;-73
2023/06/07 04:43:36;;;;;;;9.52;4.78;;;;;;;17.66;100.00;101007.16;5164010;28;20027;-72
2023/06/07 04:46:09;;;;;;;9.40;5.68;;;;;;;17.56;100.00;101008.59;5166916;28;20260;-72
2023/06/07 04:48:41;;;;;;;11.50;5.35;;;;;;;17.59;100.00;101014.56;5170100;28;20392;-73
2023/06/07 04:51:13;;;;;;;7.45;5.00;;;;;;;17.68;100.00;101014.03;5167402;28;20034;-73
2023/06/07 04:53:44;;;;;;;7.53;5.00;;;;;;;17.61;100.00;101011.81;5167917;28;20064;-72
2023/06/07 04:56:15;;;;;;;9.80;5.45;;;;;;;17.72;100.00;101015.59;5165418;28;20033;-73
2023/06/07 04:58:46;;;;;;;8.07;5.22;;;;;;;17.78;100.00;101017.88;5166884;28;20157;-73
2023/06/07 05:01:17;;;;;;;8.63;5.03;;;;;;;17.86;100.00;101020.06;5163860;28;20596;-73
2023/06/07 05:03:49;;;;;;;8.32;5.13;;;;;;;17.96;100.00;101018.56;5166629;28;20040;-73
2023/06/07 05:06:19;;;;;;;9.02;5.10;;;;;;;18.32;100.00;101011.16;5165329;28;20136;-73
2023/06/07 05:08:49;;;;;;;7.28;4.75;;;;;;;18.70;100.00;101017.59;5166163;28;20495;-70
2023/06/07 05:11:20;;;;;;;10.50;4.93;;;;;;;18.73;100.00;101019.09;5163692;28;20423;-73
2023/06/07 05:13:50;;;;;;;7.22;4.75;;;;;;;18.91;100.00;101014.47;5167009;28;20034;-72
2023/06/07 05:16:20;;;;;;;11.55;4.80;;;;;;;19.08;100.00;101009.81;5164446;28;20029;-72
2023/06/07 05:18:50;;;;;;;12.15;5.70;;;;;;;19.38;100.00;101013.19;5165838;28;20607;-72
2023/06/07 05:21:21;;;;;;;11.73;5.63;;;;;;;19.45;100.00;101016.28;5164952;28;20041;-73
2023/06/07 05:23:51;;;;;;;7.82;4.72;;;;;;;19.34;100.00;101016.13;5166140;28;20491;-73
2023/06/07 05:26:22;;;;;;;9.93;4.85;;;;;;;19.00;100.00;101009.44;5165203;28;20025;-73
2023/06/07 05:28:52;;;;;;;8.73;4.53;;;;;;;19.10;100.00;101007.91;5164311;28;20108;-72
2023/06/07 05:31:23;;;;;;;8.00;5.07;;;;;;;19.12;100.00;101008.66;5167177;28;20026;-73
2023/06/07 05:33:53;;;;;;;8.43;5.35;;;;;;;19.11;100.00;101004.28;5169630;28;20125;-72
2023/06/07 05:36:23;;;;;;;11.27;5.70;;;;;;;18.94;100.00;101011.63;5166214;28;20316;-73
2023/06/07 05:38:53;;;;;;;7.57;5.15;;;;;;;19.02;100.00;101018.16;5168458;28;20026;-72
2023/06/07 05:41:24;;;;;;;8.57;5.13;;;;;;;19.32;100.00;101016.25;5164518;28;20029;-73
2023/06/07 05:43:55;;;;;;;11.60;5.43;;;;;;;19.40;100.00;101018.38;5165947;28;20691;-72
2023/06/07 05:46:25;;;;;;;9.40;4.97;;;;;;;19.43;100.00;101021.69;5162632;28;20022;-72
2023/06/07 05:48:55;;;;;;;10.43;5.63;;;;;;;19.41;100.00;101020.94;5168444;28;20373;-72
2023/06/07 05:51:26;;;;;;;8.13;5.40;;;;;;;19.08;100.00;101017.75;5167665;28;20280;-72
2023/06/07 05:53:56;;;;;;;8.82;5.25;;;;;;;19.28;100.00;101022.66;5167339;28;20419;-72
2023/06/07 05:56:27;;;;;;;10.23;4.93;;;;;;;19.33;100.00;101025.88;5167239;28;22380;-72
2023/06/07 05:58:58;;;;;;;8.48;5.25;;;;;;;19.52;100.00;101031.69;5167749;28;20291;-73
2023/06/07 06:01:29;;;;;;;12.07;5.60;;;;;;;19.54;100.00;101031.59;5164827;28;20045;-72
2023/06/07 06:03:59;;;;;;;9.60;5.00;;;;;;;19.55;100.00;101033.28;5172896;28;20499;-72
2023/06/07 06:06:29;;;;;;;8.13;5.18;;;;;;;19.89;100.00;101036.28;5167598;28;20065;-72
2023/06/07 06:09:00;;;;;;;9.93;5.40;;;;;;;20.23;100.00;101033.09;5169129;28;20030;-72
2023/06/07 06:11:30;;;;;;;6.97;4.30;;;;;;;20.37;100.00;101035.69;5168854;28;20281;-73
2023/06/07 06:14:01;;;;;;;7.53;4.55;;;;;;;20.46;100.00;101031.53;5168567;28;20256;-73
2023/06/07 06:16:31;;;;;;;7.50;4.68;;;;;;;20.43;100.00;101045.03;5166611;28;20062;-73
2023/06/07 06:19:02;;;;;;;9.00;4.85;;;;;;;20.39;100.00;101047.03;5169127;28;20041;-72
2023/06/07 06:21:32;;;;;;;9.33;4.77;;;;;;;20.48;99.72;101051.72;5167563;28;20030;-73
2023/06/07 06:24:03;;;;;;;6.67;4.23;;;;;;;20.51;95.66;101048.84;5173078;28;20339;-72
2023/06/07 06:26:33;;;;;;;9.25;4.75;;;;;;;20.66;97.63;101046.94;5171762;28;20713;-73
2023/06/07 06:29:03;;;;;;;8.50;4.72;;;;;;;20.57;99.47;101047.56;5170721;28;20261;-73
2023/06/07 06:31:33;;;;;;;7.80;5.25;;;;;;;20.52;100.00;101063.84;5169235;28;20046;-73
2023/06/07 06:34:04;;;;;;;9.38;5.15;;;;;;;20.40;100.00;101064.69;5171776;28;20117;-73
2023/06/07 06:36:34;;;;;;;8.25;5.10;;;;;;;20.19;100.00;101059.94;5169765;28;20026;-73
2023/06/07 06:39:05;;;;;;;7.50;4.72;;;;;;;19.91;100.00;101066.22;5171256;28;20116;-73
2023/06/07 06:41:35;;;;;;;7.60;5.28;;;;;;;19.96;100.00;101064.09;5173539;28;20116;-73
2023/06/07 06:44:06;;;;;;;7.57;4.93;;;;;;;20.11;100.00;101067.59;5173223;28;20444;-73
2023/06/07 06:46:36;;;;;;;11.13;5.05;;;;;;;20.22;100.00;101057.94;5169249;28;20041;-73
2023/06/07 06:49:06;;;;;;;7.90;4.97;;;;;;;20.35;100.00;101053.53;5166233;28;20060;-72
2023/06/07 06:51:37;;;;;;;7.10;4.80;;;;;;;20.40;100.00;101059.38;5172269;28;20054;-72
2023/06/07 06:54:07;;;;;;;8.60;5.13;;;;;;;20.37;100.00;101058.72;5169632;28;20037;-74
2023/06/07 06:56:37;;;;;;;8.57;5.47;;;;;;;20.28;100.00;101064.66;5172031;28;20300;-73
2023/06/07 06:59:08;;;;;;;11.20;5.50;;;;;;;20.34;100.00;101062.44;5171005;28;20280;-73
2023/06/07 07:01:45;;;;;;;11.45;5.45;;;;;;;20.47;100.00;101057.13;5169442;28;20032;-74
2023/06/07 07:04:17;;;;;;;9.10;5.28;;;;;;;20.53;100.00;101067.34;5169593;28;20530;-74
2023/06/07 07:06:47;;;;;;;7.47;4.63;;;;;;;20.55;98.29;101052.13;5172129;28;20042;-73
2023/06/07 07:09:17;;;;;;;8.38;4.53;;;;;;;20.64;99.35;101052.34;5166422;28;20032;-72
2023/06/07 07:11:48;;;;;;;7.87;5.03;;;;;;;20.59;100.00;101059.78;5171644;28;20247;-72
2023/06/07 07:14:18;;;;;;;9.45;5.03;;;;;;;20.58;100.00;101060.75;5169451;28;20285;-72
2023/06/07 07:16:48;;;;;;;9.03;4.90;;;;;;;20.42;100.00;101067.22;5171231;28;20808;-71
2023/06/07 07:19:18;;;;;;;7.13;4.67;;;;;;;20.43;99.87;101080.41;5168435;28;20293;-73
2023/06/07 07:21:49;;;;;;;8.77;4.70;;;;;;;20.17;97.67;101070.69;5172072;28;20276;-71
2023/06/07 07:24:19;;;;;;;7.60;4.47;;;;;;;20.42;98.69;101068.06;5168587;28;20034;-73
2023/06/07 07:26:51;;;;;;;9.00;4.63;;;;;;;20.53;99.84;101076.16;5171711;28;20028;-72
2023/06/07 07:29:21;;;;;;;7.72;4.63;;;;;;;20.31;96.97;101075.91;5168016;28;20214;-73
2023/06/07 07:31:51;;;;;;;6.60;4.43;;;;;;;20.36;96.58;101079.13;5170431;28;20419;-73
2023/06/07 07:34:22;;;;;;;7.43;4.72;;;;;;;20.40;97.16;101080.59;5165564;28;20029;-73
2023/06/07 07:36:53;;;;;;;6.53;4.28;;;;;;;20.34;98.02;101078.38;5171392;28;20021;-72
2023/06/07 07:39:25;;;;;;;7.88;4.55;;;;;;;20.47;95.65;101078.38;5167663;28;20423;-73
2023/06/07 07:41:55;;;;;;;9.93;4.13;;;;;;;20.30;96.08;101084.00;5171142;28;20029;-73
2023/06/07 07:44:26;;;;;;;8.03;4.80;;;;;;;20.46;97.18;101079.34;5166254;28;20026;-73
2023/06/07 07:46:56;;;;;;;6.75;4.30;;;;;;;20.44;98.97;101082.09;5169825;28;20411;-71
2023/06/07 07:49:26;;;;;;;9.73;4.10;;;;;;;20.41;99.40;101076.13;5168453;28;20399;-73
2023/06/07 07:51:57;;;;;;;9.50;4.57;;;;;;;20.32;99.54;101082.06;5171578;28;20300;-73
2023/06/07 07:54:29;;;;;;;7.75;4.45;;;;;;;20.14;97.82;101078.84;5169075;28;20048;-73
2023/06/07 07:57:01;;;;;;;8.25;4.63;;;;;;;20.61;95.88;101079.13;5170737;28;20028;-73
2023/06/07 07:59:31;;;;;;;5.63;3.95;;;;;;;20.74;95.19;101074.69;5167024;28;20026;-73
2023/06/07 08:02:03;;;;;;;8.40;4.47;;;;;;;20.88;95.39;101071.97;5171003;28;20049;-73
2023/06/07 08:04:34;;;;;;;9.48;4.03;;;;;;;20.87;93.27;101070.25;5169654;28;20376;-73
2023/06/07 08:07:04;;;;;;;7.45;4.30;;;;;;;20.99;92.78;101080.88;5170075;28;20038;-73
2023/06/07 08:09:34;;;;;;;7.68;4.53;;;;;;;21.12;92.59;101080.84;5167878;28;20026;-73
2023/06/07 08:12:05;;;;;;;6.90;4.18;;;;;;;21.26;92.99;101075.41;5169992;28;20395;-73
2023/06/07 08:14:36;;;;;;;8.07;4.10;;;;;;;21.46;92.72;101075.69;5166899;28;20688;-71
2023/06/07 08:17:06;;;;;;;6.25;4.57;;;;;;;21.59;92.48;101072.97;5170601;28;20025;-73
2023/06/07 08:19:36;;;;;;;6.40;4.13;;;;;;;21.70;93.32;101068.59;5168341;28;20121;-73
2023/06/07 08:22:06;;;;;;;7.00;4.25;;;;;;;21.71;89.14;101074.78;5170200;28;21756;-73
2023/06/07 08:24:37;;;;;;;6.55;4.32;;;;;;;21.79;89.90;101067.94;5169273;28;20034;-73
2023/06/07 08:27:07;;;;;;;8.07;4.43;;;;;;;21.87;90.81;101070.00;5169098;28;20076;-73
2023/06/07 08:29:38;;;;;;;6.18;4.05;;;;;;;21.95;88.37;101073.78;5164777;28;20305;-73
2023/06/07 08:32:08;;;;;;;6.70;4.00;;;;;;;21.99;87.55;101069.97;5168182;28;20439;-73
2023/06/07 08:34:40;;;;;;;6.13;3.92;;;;;;;21.76;88.22;101067.31;5168970;28;20316;-73
2023/06/07 08:37:10;;;;;;;7.85;4.00;;;;;;;21.88;89.23;101066.41;5168330;28;20035;-73
2023/06/07 08:39:41;;;;;;;8.15;4.30;;;;;;;21.87;90.77;101072.66;5166336;28;20030;-73
2023/06/07 08:42:11;;;;;;;6.75;4.22;;;;;;;21.73;89.82;101080.84;5165693;28;20499;-73
2023/06/07 08:44:42;;;;;;;6.47;4.13;;;;;;;21.65;90.53;101075.22;5167126;28;20566;-73
2023/06/07 08:47:13;;;;;;;7.30;4.43;;;;;;;21.81;90.37;101071.31;5168538;28;20101;-73
2023/06/07 08:49:44;;;;;;;5.90;4.03;;;;;;;21.99;90.73;101069.09;5168036;28;20026;-73
2023/06/07 08:52:15;;;;;;;5.50;3.85;;;;;;;22.05;89.37;101074.81;5166042;28;20463;-73
2023/06/07 08:54:47;;;;;;;4.88;3.50;;;;;;;22.17;86.34;101067.72;5169467;28;20330;-74
2023/06/07 08:57:18;;;;;;;6.43;3.92;;;;;;;22.24;88.31;101063.63;5167349;28;20654;-73
2023/06/07 08:59:48;;;;;;;8.52;4.15;;;;;;;22.47;87.82;101065.41;5165749;28;20420;-72
2023/06/07 09:02:24;;;;;;;5.53;3.83;;;;;;;22.69;85.78;101069.81;5168363;28;20026;-72
2023/06/07 09:04:54;;;;;;;;;;;;;;;22.61;85.50;101075.88;5163297;28;20108;-73
2023/06/07 09:07:24;;;;;;;7.43;3.60;;;;;;;22.98;82.49;101075.56;5174063;28;20355;-72
2023/06/07 09:09:55;;;;;;;5.72;3.63;;;;;;;23.12;84.47;101073.53;5170657;28;20304;-72
2023/06/07 09:12:25;;;;;;;5.75;3.40;;;;;;;23.41;81.52;101076.53;5167927;28;20393;-73
2023/06/07 09:14:56;;;;;;;5.03;3.33;;;;;;;23.73;79.07;101078.28;5170036;28;20041;-73
2023/06/07 09:17:53;;;;;;;6.68;3.38;;;;;;;23.84;78.64;101078.28;5166286;28;20282;-73
2023/06/07 09:20:25;;;;;;;6.10;3.00;;;;;;;24.09;75.56;101074.44;5165382;28;20026;-73
2023/06/07 09:22:58;;;;;;;4.57;2.83;;;;;;;24.26;74.20;101076.53;5167230;28;20479;-73
2023/06/07 09:25:29;;;;;;;5.68;3.20;;;;;;;24.19;73.37;101078.88;5161898;28;20046;-72
2023/06/07 09:28:02;;;;;;;6.53;3.05;;;;;;;24.07;73.84;101081.72;5167200;28;20036;-73
2023/06/07 09:30:32;;;;;;;4.78;2.80;;;;;;;24.13;77.53;101087.41;5165766;28;20449;-72
2023/06/07 09:33:03;;;;;;;5.68;2.97;;;;;;;23.87;75.10;101083.38;5166827;28;20026;-72
2023/06/07 09:35:33;;;;;;;7.30;3.13;;;;;;;23.75;74.91;101076.34;5157918;28;20348;-73
2023/06/07 09:38:06;;;;;;;4.90;2.90;;;;;;;23.48;75.92;101078.59;5158086;28;20309;-72
2023/06/07 09:40:49;;;;;;;5.47;2.85;;;;;;;23.28;73.48;101079.34;5160213;28;20274;-71
2023/06/07 09:43:19;;;;;;;5.25;2.97;;;;;;;23.01;77.11;101078.00;5159151;28;20050;-72
2023/06/07 09:45:54;;;;;;;5.68;3.00;;;;;;;23.44;76.17;101074.47;5164575;28;20121;-72
2023/06/07 09:48:24;;;;;;;4.65;2.53;;;;;;;23.27;69.36;101080.31;5157894;28;20039;-71
2023/06/07 09:50:56;;;;;;;4.55;2.83;;;;;;;23.92;71.29;101081.19;5162160;28;20499;-72
2023/06/07 09:53:27;;;;;;;5.25;2.80;;;;;;;24.36;74.13;101083.66;5158450;28;20462;-72
2023/06/07 09:55:57;;;;;;;4.13;2.60;;;;;;;24.07;70.86;101077.22;5163033;28;20026;-72
2023/06/07 09:58:27;;;;;;;5.67;3.00;;;;;;;24.14;68.87;101080.22;5162097;28;20100;-72
2023/06/07 10:00:58;;;;;;;5.78;2.60;;;;;;;24.44;68.75;101078.53;5224561;23;20339;-72
2023/06/07 10:03:28;;;;;;;7.78;3.05;;;;;;;24.61;69.59;101080.66;5201763;28;20549;-72
2023/06/07 10:05:59;;;;;;;3.83;2.67;;;;;;;24.45;64.74;101082.88;5203964;28;20094;-72
2023/06/07 10:08:31;;;;;;;5.32;3.00;;;;;;;24.74;68.25;101078.59;5205736;28;20600;-71
2023/06/07 10:11:02;;;;;;;4.50;2.65;;;;;;;25.27;68.96;101072.09;5189351;28;20052;-71
2023/06/07 10:13:33;;;;;;;5.13;2.72;;;;;;;25.59;67.75;101079.00;5185972;28;20022;-71
2023/06/07 10:16:09;;;;;;;4.95;2.60;;;;;;;25.25;68.83;101079.44;5183617;28;20034;-72
2023/06/07 10:18:41;;;;;;;4.93;2.70;;;;;;;25.58;68.00;101065.72;5181025;28;20471;-72
2023/06/07 10:21:16;;;;;;;4.75;2.70;;;;;;;25.45;68.95;101068.66;5182878;28;20329;-72
2023/06/07 10:23:51;;;;;;;6.65;2.50;;;;;;;25.14;66.70;101072.31;5187201;28;20183;-72
2023/06/07 10:26:31;;;;;;;6.43;2.67;;;;;;;24.86;66.95;101073.03;5186808;28;20395;-72
2023/06/07 10:29:07;;;;;;;8.02;3.00;;;;;;;25.28;66.53;101074.66;5181048;28;20774;-72
2023/06/07 10:31:57;;;;;;;4.88;2.67;;;;;;;25.08;66.63;101067.50;5181474;28;20485;-72
2023/06/07 10:34:30;;;;;;;4.18;2.28;;;;;;;25.54;66.16;101056.28;5181761;28;20046;-72
2023/06/07 10:37:01;;;;;;;3.00;2.05;;;;;;;25.30;62.80;101061.97;5178906;28;20057;-71
2023/06/07 10:39:32;;;;;;;3.10;2.20;;;;;;;25.84;61.28;101061.56;5184857;28;20112;-71
2023/06/07 10:42:02;;;;;;;4.78;2.80;;;;;;;25.50;62.70;101062.91;5187953;28;20388;-72
2023/06/07 10:44:36;;;;;;;6.28;2.53;;;;;;;25.78;62.33;101062.09;5183445;28;20113;-72
2023/06/07 10:47:21;;;;;;;6.38;2.40;;;;;;;25.61;63.03;101057.41;5184591;28;20092;-72
2023/06/07 10:49:53;;;;;;;4.72;2.70;;;;;;;26.05;60.54;101056.94;5184999;28;20080;-72
2023/06/07 10:52:26;;;;;;;4.88;2.67;;;;;;;25.38;63.12;101058.63;5183997;28;20026;-72
2023/06/07 10:54:56;;;;;;;5.18;2.88;;;;;;;25.51;63.96;101053.88;5181781;28;20034;-72
2023/06/07 10:57:37;;;;;;;5.47;2.47;;;;;;;25.86;62.66;101051.56;5185471;28;20403;-72
2023/06/07 11:00:33;;;;;;;6.40;3.03;;;;;;;25.96;61.18;101049.72;5181812;28;20033;-72
2023/06/07 11:03:12;;;;;;;5.03;2.53;;;;;;;25.24;60.38;101045.63;5189491;28;20169;-72
2023/06/07 11:05:51;;;;;;;4.55;2.40;;;;;;;25.46;61.56;101040.06;5187658;28;20313;-72
2023/06/07 11:08:28;;;;;;;6.75;2.45;;;;;;;25.73;62.06;101046.47;5184389;28;20025;-72
2023/06/07 11:11:00;;;;;;;3.95;2.10;;;;;;;25.70;58.54;101040.53;5181224;28;20026;-71
2023/06/07 11:13:43;;;;;;;6.57;2.10;;;;;;;25.28;57.23;101045.22;5181681;28;20053;-72
2023/06/07 11:16:22;;;;;;;6.78;2.10;;;;;;;24.85;58.61;101046.41;5181948;28;20029;-72
2023/06/07 11:19:04;;;;;;;3.35;2.28;;;;;;;24.94;59.15;101048.31;5177882;28;20032;-72
2023/06/07 11:21:53;;;;;;;3.10;1.88;;;;;;;24.60;60.39;101038.84;5183563;28;20029;-72
2023/06/07 11:24:24;;;;;;;3.05;2.17;;;;;;;24.70;59.04;101044.25;5186534;28;20026;-74
2023/06/07 11:26:54;;;;;;;3.58;2.15;;;;;;;25.04;58.80;101049.19;5184098;28;20055;-72
2023/06/07 11:29:25;;;;;;;3.45;2.00;;;;;;;25.22;60.35;101036.88;5181671;28;20073;-72
2023/06/07 11:32:02;;;;;;;2.85;1.73;;;;;;;25.43;58.08;101045.66;5188447;28;20510;-70
2023/06/07 11:34:33;;;;;;;4.10;2.10;;;;;;;25.25;58.75;101039.28;5182614;28;20624;-71
2023/06/07 11:37:08;;;;;;;3.03;1.98;;;;;;;25.42;57.69;101035.94;5191379;28;20042;-72
2023/06/07 11:39:38;;;;;;;4.30;1.70;;;;;;;25.46;58.41;101042.75;5183030;28;20030;-72
2023/06/07 11:42:09;;;;;;;3.10;1.65;;;;;;;24.95;58.57;101037.44;5186370;28;20018;-72